sensor_id;sensor_type;location;lat;lon;timestamp;P1;durP1;ratioP1;P2;durP2;ratioP2
27265;SDS011;14766;51.380;13.762;2022-12-07T00:01:33;16.30;;;9.48;;
27265;SDS011;14766;51.380;13.762;2022-12-07T00:04:03;16.13;;;9.82;;
27265;SDS011;14766;51.380;13.762;2022-12-07T00:06:35;17.48;;;9.77;;
27265;SDS011;14766;51.380;13.762;2022-12-07T00:09:04;17.67;;;10.48;;
27265;SDS011;14766;51.380;13.762;2022-12-07T00:11:33;18.38;;;10.50;;
27265;SDS011;14766;51.380;13.762;2022-12-07T00:14:02;14.75;;;9.00;;
27265;SDS011;14766;51.380;13.762;2022-12-07T00:16:31;14.77;;;9.45;;
27265;SDS011;14766;51.380;13.762;2022-12-07T00:19:00;16.23;;;9.55;;
27265;SDS011;14766;51.380;13.762;2022-12-07T00:21:28;16.42;;;9.65;;
27265;SDS011;14766;51.380;13.762;2022-12-07T00:23:57;14.88;;;9.75;;
27265;SDS011;14766;51.380;13.762;2022-12-07T00:26:25;14.63;;;9.18;;
27265;SDS011;14766;51.380;13.762;2022-12-07T00:29:14;17.33;;;9.95;;
27265;SDS011;14766;51.380;13.762;2022-12-07T00:31:43;15.52;;;8.95;;
27265;SDS011;14766;51.380;13.762;2022-12-07T00:34:13;16.75;;;10.35;;
27265;SDS011;14766;51.380;13.762;2022-12-07T00:36:42;16.40;;;9.77;;
27265;SDS011;14766;51.380;13.762;2022-12-07T00:39:09;16.40;;;10.55;;
27265;SDS011;14766;51.380;13.762;2022-12-07T00:41:36;16.63;;;10.48;;
27265;SDS011;14766;51.380;13.762;2022-12-07T00:44:03;16.92;;;10.63;;
27265;SDS011;14766;51.380;13.762;2022-12-07T00:46:31;16.70;;;10.75;;
27265;SDS011;14766;51.380;13.762;2022-12-07T00:48:59;16.63;;;10.20;;
27265;SDS011;14766;51.380;13.762;2022-12-07T00:51:26;18.48;;;11.65;;
27265;SDS011;14766;51.380;13.762;2022-12-07T00:53:53;18.83;;;11.10;;
27265;SDS011;14766;51.380;13.762;2022-12-07T00:56:24;17.42;;;10.32;;
27265;SDS011;14766;51.380;13.762;2022-12-07T00:58:57;15.45;;;9.48;;
27265;SDS011;14766;51.380;13.762;2022-12-07T01:01:27;16.77;;;11.00;;
27265;SDS011;14766;51.380;13.762;2022-12-07T01:03:56;19.73;;;11.45;;
27265;SDS011;14766;51.380;13.762;2022-12-07T01:06:24;17.55;;;10.43;;
27265;SDS011;14766;51.380;13.762;2022-12-07T01:08:53;15.95;;;9.43;;
27265;SDS011;14766;51.380;13.762;2022-12-07T01:11:22;17.67;;;10.88;;
27265;SDS011;14766;51.380;13.762;2022-12-07T01:13:51;16.08;;;9.90;;
27265;SDS011;14766;51.380;13.762;2022-12-07T01:16:20;16.02;;;10.15;;
27265;SDS011;14766;51.380;13.762;2022-12-07T01:18:49;17.98;;;10.90;;
27265;SDS011;14766;51.380;13.762;2022-12-07T01:21:21;18.00;;;10.80;;
27265;SDS011;14766;51.380;13.762;2022-12-07T01:23:49;18.63;;;11.30;;
27265;SDS011;14766;51.380;13.762;2022-12-07T01:26:18;18.15;;;10.93;;
27265;SDS011;14766;51.380;13.762;2022-12-07T01:28:46;13.75;;;8.70;;
27265;SDS011;14766;51.380;13.762;2022-12-07T01:31:15;15.07;;;9.25;;
27265;SDS011;14766;51.380;13.762;2022-12-07T01:33:45;17.55;;;9.90;;
27265;SDS011;14766;51.380;13.762;2022-12-07T01:36:15;13.82;;;8.57;;
27265;SDS011;14766;51.380;13.762;2022-12-07T01:38:44;18.95;;;9.48;;
27265;SDS011;14766;51.380;13.762;2022-12-07T01:41:13;17.55;;;10.25;;
27265;SDS011;14766;51.380;13.762;2022-12-07T01:46:35;18.30;;;9.73;;
27265;SDS011;14766;51.380;13.762;2022-12-07T01:49:07;17.30;;;9.57;;
27265;SDS011;14766;51.380;13.762;2022-12-07T01:51:37;17.55;;;10.20;;
27265;SDS011;14766;51.380;13.762;2022-12-07T01:54:08;15.73;;;9.18;;
27265;SDS011;14766;51.380;13.762;2022-12-07T01:56:37;15.20;;;9.00;;
27265;SDS011;14766;51.380;13.762;2022-12-07T01:59:08;16.63;;;9.20;;
27265;SDS011;14766;51.380;13.762;2022-12-07T02:01:35;15.70;;;9.48;;
27265;SDS011;14766;51.380;13.762;2022-12-07T02:04:02;16.17;;;9.13;;
27265;SDS011;14766;51.380;13.762;2022-12-07T02:06:29;18.02;;;10.23;;
27265;SDS011;14766;51.380;13.762;2022-12-07T02:08:58;19.40;;;10.50;;
27265;SDS011;14766;51.380;13.762;2022-12-07T02:11:25;19.63;;;11.10;;
27265;SDS011;14766;51.380;13.762;2022-12-07T02:13:52;16.48;;;9.63;;
27265;SDS011;14766;51.380;13.762;2022-12-07T02:21:59;18.50;;;9.93;;
27265;SDS011;14766;51.380;13.762;2022-12-07T02:30:23;17.33;;;9.88;;
27265;SDS011;14766;51.380;13.762;2022-12-07T02:32:59;18.83;;;10.30;;
27265;SDS011;14766;51.380;13.762;2022-12-07T02:38:37;18.13;;;9.95;;
27265;SDS011;14766;51.380;13.762;2022-12-07T02:41:16;15.80;;;9.63;;
27265;SDS011;14766;51.380;13.762;2022-12-07T02:43:54;18.85;;;10.70;;
27265;SDS011;14766;51.380;13.762;2022-12-07T02:46:29;18.15;;;10.38;;
27265;SDS011;14766;51.380;13.762;2022-12-07T02:49:07;15.80;;;9.38;;
27265;SDS011;14766;51.380;13.762;2022-12-07T02:51:41;19.65;;;10.60;;
27265;SDS011;14766;51.380;13.762;2022-12-07T02:54:11;18.52;;;10.10;;
27265;SDS011;14766;51.380;13.762;2022-12-07T02:59:24;17.38;;;10.15;;
27265;SDS011;14766;51.380;13.762;2022-12-07T03:11:20;17.77;;;10.23;;
27265;SDS011;14766;51.380;13.762;2022-12-07T03:13:40;16.33;;;9.70;;
27265;SDS011;14766;51.380;13.762;2022-12-07T03:19:02;19.05;;;10.98;;
27265;SDS011;14766;51.380;13.762;2022-12-07T03:24:08;17.02;;;9.93;;
27265;SDS011;14766;51.380;13.762;2022-12-07T03:26:44;15.80;;;9.50;;
27265;SDS011;14766;51.380;13.762;2022-12-07T03:29:26;15.02;;;9.23;;
27265;SDS011;14766;51.380;13.762;2022-12-07T03:31:58;14.68;;;9.70;;
27265;SDS011;14766;51.380;13.762;2022-12-07T03:34:48;17.17;;;10.60;;
27265;SDS011;14766;51.380;13.762;2022-12-07T03:37:30;14.75;;;9.32;;
27265;SDS011;14766;51.380;13.762;2022-12-07T03:42:33;15.75;;;9.95;;
27265;SDS011;14766;51.380;13.762;2022-12-07T03:45:01;16.90;;;9.52;;
27265;SDS011;14766;51.380;13.762;2022-12-07T03:47:35;15.45;;;9.55;;
27265;SDS011;14766;51.380;13.762;2022-12-07T03:52:53;18.10;;;9.38;;
27265;SDS011;14766;51.380;13.762;2022-12-07T03:55:29;15.20;;;9.88;;
27265;SDS011;14766;51.380;13.762;2022-12-07T03:58:01;15.55;;;9.73;;
27265;SDS011;14766;51.380;13.762;2022-12-07T04:00:31;17.63;;;11.15;;
27265;SDS011;14766;51.380;13.762;2022-12-07T04:02:59;16.40;;;10.23;;
27265;SDS011;14766;51.380;13.762;2022-12-07T04:05:26;16.60;;;10.32;;
27265;SDS011;14766;51.380;13.762;2022-12-07T04:07:54;17.73;;;10.00;;
27265;SDS011;14766;51.380;13.762;2022-12-07T04:10:21;17.13;;;10.88;;
27265;SDS011;14766;51.380;13.762;2022-12-07T04:12:48;18.33;;;10.10;;
27265;SDS011;14766;51.380;13.762;2022-12-07T04:15:15;18.67;;;10.93;;
27265;SDS011;14766;51.380;13.762;2022-12-07T04:17:42;16.90;;;9.93;;
27265;SDS011;14766;51.380;13.762;2022-12-07T04:20:09;17.92;;;10.70;;
27265;SDS011;14766;51.380;13.762;2022-12-07T04:22:37;19.02;;;11.07;;
27265;SDS011;14766;51.380;13.762;2022-12-07T04:25:04;19.70;;;11.65;;
27265;SDS011;14766;51.380;13.762;2022-12-07T04:27:31;18.90;;;10.80;;
27265;SDS011;14766;51.380;13.762;2022-12-07T04:29:58;17.52;;;10.25;;
27265;SDS011;14766;51.380;13.762;2022-12-07T04:32:26;16.40;;;10.02;;
27265;SDS011;14766;51.380;13.762;2022-12-07T04:34:55;16.30;;;10.63;;
27265;SDS011;14766;51.380;13.762;2022-12-07T04:37:23;18.02;;;9.80;;
27265;SDS011;14766;51.380;13.762;2022-12-07T04:39:51;18.38;;;10.60;;
27265;SDS011;14766;51.380;13.762;2022-12-07T04:42:18;17.30;;;10.45;;
27265;SDS011;14766;51.380;13.762;2022-12-07T04:44:45;19.00;;;10.70;;
27265;SDS011;14766;51.380;13.762;2022-12-07T04:47:12;17.83;;;9.68;;
27265;SDS011;14766;51.380;13.762;2022-12-07T04:49:39;15.98;;;9.77;;
27265;SDS011;14766;51.380;13.762;2022-12-07T04:52:06;16.35;;;9.43;;
27265;SDS011;14766;51.380;13.762;2022-12-07T04:54:33;16.27;;;9.35;;
27265;SDS011;14766;51.380;13.762;2022-12-07T04:57:00;15.15;;;8.90;;
27265;SDS011;14766;51.380;13.762;2022-12-07T04:59:27;17.42;;;9.80;;
27265;SDS011;14766;51.380;13.762;2022-12-07T05:01:56;16.05;;;9.55;;
27265;SDS011;14766;51.380;13.762;2022-12-07T05:04:23;15.40;;;8.70;;
27265;SDS011;14766;51.380;13.762;2022-12-07T05:06:49;16.40;;;9.38;;
27265;SDS011;14766;51.380;13.762;2022-12-07T05:09:18;14.65;;;8.55;;
27265;SDS011;14766;51.380;13.762;2022-12-07T05:11:45;15.43;;;8.68;;
27265;SDS011;14766;51.380;13.762;2022-12-07T05:14:14;15.32;;;9.70;;
27265;SDS011;14766;51.380;13.762;2022-12-07T05:16:44;16.45;;;9.13;;
27265;SDS011;14766;51.380;13.762;2022-12-07T05:19:13;15.73;;;9.25;;
27265;SDS011;14766;51.380;13.762;2022-12-07T05:21:40;15.75;;;9.23;;
27265;SDS011;14766;51.380;13.762;2022-12-07T05:24:08;15.77;;;9.82;;
27265;SDS011;14766;51.380;13.762;2022-12-07T05:26:37;15.40;;;9.07;;
27265;SDS011;14766;51.380;13.762;2022-12-07T05:29:04;17.85;;;9.93;;
27265;SDS011;14766;51.380;13.762;2022-12-07T05:31:32;17.17;;;9.30;;
27265;SDS011;14766;51.380;13.762;2022-12-07T05:33:59;17.02;;;9.38;;
27265;SDS011;14766;51.380;13.762;2022-12-07T05:36:26;15.95;;;9.30;;
27265;SDS011;14766;51.380;13.762;2022-12-07T05:38:55;14.95;;;8.95;;
27265;SDS011;14766;51.380;13.762;2022-12-07T05:41:22;15.80;;;9.57;;
27265;SDS011;14766;51.380;13.762;2022-12-07T05:44:08;18.42;;;10.80;;
27265;SDS011;14766;51.380;13.762;2022-12-07T05:46:35;16.85;;;9.13;;
27265;SDS011;14766;51.380;13.762;2022-12-07T05:49:02;17.00;;;9.85;;
27265;SDS011;14766;51.380;13.762;2022-12-07T05:51:29;16.42;;;10.20;;
27265;SDS011;14766;51.380;13.762;2022-12-07T05:53:57;15.95;;;9.93;;
27265;SDS011;14766;51.380;13.762;2022-12-07T05:56:26;16.27;;;9.40;;
27265;SDS011;14766;51.380;13.762;2022-12-07T05:58:53;15.00;;;8.98;;
27265;SDS011;14766;51.380;13.762;2022-12-07T06:01:39;14.57;;;8.32;;
27265;SDS011;14766;51.380;13.762;2022-12-07T06:04:07;14.60;;;8.68;;
27265;SDS011;14766;51.380;13.762;2022-12-07T06:06:34;12.38;;;8.00;;
27265;SDS011;14766;51.380;13.762;2022-12-07T06:09:01;11.20;;;7.20;;
27265;SDS011;14766;51.380;13.762;2022-12-07T06:11:30;13.10;;;8.18;;
27265;SDS011;14766;51.380;13.762;2022-12-07T06:14:15;11.45;;;7.15;;
27265;SDS011;14766;51.380;13.762;2022-12-07T06:16:42;12.25;;;6.88;;
27265;SDS011;14766;51.380;13.762;2022-12-07T06:19:09;13.75;;;7.85;;
27265;SDS011;14766;51.380;13.762;2022-12-07T06:21:37;14.55;;;7.93;;
27265;SDS011;14766;51.380;13.762;2022-12-07T06:24:04;12.27;;;7.05;;
27265;SDS011;14766;51.380;13.762;2022-12-07T06:26:31;14.18;;;8.68;;
27265;SDS011;14766;51.380;13.762;2022-12-07T06:28:59;13.10;;;8.20;;
27265;SDS011;14766;51.380;13.762;2022-12-07T06:31:26;15.05;;;8.45;;
27265;SDS011;14766;51.380;13.762;2022-12-07T06:33:57;13.93;;;8.38;;
27265;SDS011;14766;51.380;13.762;2022-12-07T06:36:28;13.43;;;7.40;;
27265;SDS011;14766;51.380;13.762;2022-12-07T06:38:56;12.65;;;7.95;;
27265;SDS011;14766;51.380;13.762;2022-12-07T06:41:24;8.68;;;6.10;;
27265;SDS011;14766;51.380;13.762;2022-12-07T06:43:51;10.43;;;6.00;;
27265;SDS011;14766;51.380;13.762;2022-12-07T06:46:22;11.90;;;6.63;;
27265;SDS011;14766;51.380;13.762;2022-12-07T06:48:50;11.13;;;6.03;;
27265;SDS011;14766;51.380;13.762;2022-12-07T06:51:18;8.75;;;6.05;;
27265;SDS011;14766;51.380;13.762;2022-12-07T06:53:46;8.40;;;5.72;;
27265;SDS011;14766;51.380;13.762;2022-12-07T06:56:14;10.15;;;6.43;;
27265;SDS011;14766;51.380;13.762;2022-12-07T06:58:43;11.20;;;6.50;;
27265;SDS011;14766;51.380;13.762;2022-12-07T07:01:10;9.60;;;6.18;;
27265;SDS011;14766;51.380;13.762;2022-12-07T07:03:39;8.25;;;5.97;;
27265;SDS011;14766;51.380;13.762;2022-12-07T07:06:06;11.13;;;7.40;;
27265;SDS011;14766;51.380;13.762;2022-12-07T07:08:35;9.93;;;6.80;;
27265;SDS011;14766;51.380;13.762;2022-12-07T07:11:03;11.50;;;7.30;;
27265;SDS011;14766;51.380;13.762;2022-12-07T07:13:31;12.07;;;6.65;;
27265;SDS011;14766;51.380;13.762;2022-12-07T07:15:58;9.32;;;6.18;;
27265;SDS011;14766;51.380;13.762;2022-12-07T07:18:26;10.05;;;6.38;;
27265;SDS011;14766;51.380;13.762;2022-12-07T07:20:55;10.05;;;6.78;;
27265;SDS011;14766;51.380;13.762;2022-12-07T07:23:22;10.45;;;6.10;;
27265;SDS011;14766;51.380;13.762;2022-12-07T07:25:49;11.90;;;7.68;;
27265;SDS011;14766;51.380;13.762;2022-12-07T07:28:17;9.15;;;6.70;;
27265;SDS011;14766;51.380;13.762;2022-12-07T07:30:44;10.18;;;6.60;;
27265;SDS011;14766;51.380;13.762;2022-12-07T07:33:11;12.63;;;8.10;;
27265;SDS011;14766;51.380;13.762;2022-12-07T07:35:39;10.00;;;6.30;;
27265;SDS011;14766;51.380;13.762;2022-12-07T07:38:07;11.35;;;7.22;;
27265;SDS011;14766;51.380;13.762;2022-12-07T07:40:34;12.07;;;8.25;;
27265;SDS011;14766;51.380;13.762;2022-12-07T07:43:02;12.68;;;8.07;;
27265;SDS011;14766;51.380;13.762;2022-12-07T07:49:36;11.27;;;7.68;;
27265;SDS011;14766;51.380;13.762;2022-12-07T07:52:08;11.98;;;7.80;;
27265;SDS011;14766;51.380;13.762;2022-12-07T07:54:35;12.77;;;8.15;;
27265;SDS011;14766;51.380;13.762;2022-12-07T07:57:02;12.60;;;7.95;;
27265;SDS011;14766;51.380;13.762;2022-12-07T07:59:29;11.73;;;7.80;;
27265;SDS011;14766;51.380;13.762;2022-12-07T08:01:56;11.30;;;7.07;;
27265;SDS011;14766;51.380;13.762;2022-12-07T08:04:24;10.32;;;7.38;;
27265;SDS011;14766;51.380;13.762;2022-12-07T08:06:52;10.98;;;8.05;;
27265;SDS011;14766;51.380;13.762;2022-12-07T08:09:19;12.10;;;8.95;;
27265;SDS011;14766;51.380;13.762;2022-12-07T08:11:46;12.18;;;8.02;;
27265;SDS011;14766;51.380;13.762;2022-12-07T08:14:13;11.80;;;7.80;;
27265;SDS011;14766;51.380;13.762;2022-12-07T08:16:40;13.98;;;8.57;;
27265;SDS011;14766;51.380;13.762;2022-12-07T08:19:07;12.25;;;8.15;;
27265;SDS011;14766;51.380;13.762;2022-12-07T08:21:34;11.23;;;7.57;;
27265;SDS011;14766;51.380;13.762;2022-12-07T08:24:01;13.07;;;7.95;;
27265;SDS011;14766;51.380;13.762;2022-12-07T08:26:28;11.32;;;7.75;;
27265;SDS011;14766;51.380;13.762;2022-12-07T08:28:55;15.73;;;8.65;;
27265;SDS011;14766;51.380;13.762;2022-12-07T08:31:22;11.30;;;7.78;;
27265;SDS011;14766;51.380;13.762;2022-12-07T08:33:50;13.32;;;8.95;;
27265;SDS011;14766;51.380;13.762;2022-12-07T08:36:18;12.35;;;8.52;;
27265;SDS011;14766;51.380;13.762;2022-12-07T08:38:46;11.70;;;8.10;;
27265;SDS011;14766;51.380;13.762;2022-12-07T08:41:33;12.68;;;7.45;;
27265;SDS011;14766;51.380;13.762;2022-12-07T08:44:00;16.23;;;8.50;;
27265;SDS011;14766;51.380;13.762;2022-12-07T08:46:32;13.07;;;8.40;;
27265;SDS011;14766;51.380;13.762;2022-12-07T08:49:16;15.50;;;9.20;;
27265;SDS011;14766;51.380;13.762;2022-12-07T08:51:46;13.43;;;8.50;;
27265;SDS011;14766;51.380;13.762;2022-12-07T08:54:14;14.18;;;8.80;;
27265;SDS011;14766;51.380;13.762;2022-12-07T08:56:43;16.50;;;8.98;;
27265;SDS011;14766;51.380;13.762;2022-12-07T08:59:13;13.07;;;8.63;;
27265;SDS011;14766;51.380;13.762;2022-12-07T09:01:42;14.60;;;9.27;;
27265;SDS011;14766;51.380;13.762;2022-12-07T09:04:09;13.38;;;7.68;;
27265;SDS011;14766;51.380;13.762;2022-12-07T09:06:37;13.07;;;8.60;;
27265;SDS011;14766;51.380;13.762;2022-12-07T09:09:05;12.60;;;7.97;;
27265;SDS011;14766;51.380;13.762;2022-12-07T09:11:33;12.70;;;8.32;;
27265;SDS011;14766;51.380;13.762;2022-12-07T09:14:00;13.32;;;8.38;;
27265;SDS011;14766;51.380;13.762;2022-12-07T09:16:28;12.32;;;7.43;;
27265;SDS011;14766;51.380;13.762;2022-12-07T09:18:56;13.18;;;8.23;;
27265;SDS011;14766;51.380;13.762;2022-12-07T09:21:24;12.40;;;8.55;;
27265;SDS011;14766;51.380;13.762;2022-12-07T09:23:53;13.85;;;8.18;;
27265;SDS011;14766;51.380;13.762;2022-12-07T09:26:21;11.13;;;7.45;;
27265;SDS011;14766;51.380;13.762;2022-12-07T09:28:48;11.85;;;7.95;;
27265;SDS011;14766;51.380;13.762;2022-12-07T09:31:15;14.20;;;8.05;;
27265;SDS011;14766;51.380;13.762;2022-12-07T09:33:55;12.07;;;8.10;;
27265;SDS011;14766;51.380;13.762;2022-12-07T09:36:24;13.40;;;8.27;;
27265;SDS011;14766;51.380;13.762;2022-12-07T09:38:55;13.90;;;7.63;;
27265;SDS011;14766;51.380;13.762;2022-12-07T09:41:23;10.70;;;6.82;;
27265;SDS011;14766;51.380;13.762;2022-12-07T09:43:53;11.25;;;7.68;;
27265;SDS011;14766;51.380;13.762;2022-12-07T09:48:57;9.63;;;6.35;;
27265;SDS011;14766;51.380;13.762;2022-12-07T09:51:24;13.90;;;8.00;;
27265;SDS011;14766;51.380;13.762;2022-12-07T09:53:53;13.68;;;7.65;;
27265;SDS011;14766;51.380;13.762;2022-12-07T09:56:21;10.68;;;6.65;;
27265;SDS011;14766;51.380;13.762;2022-12-07T09:58:51;12.45;;;7.40;;
27265;SDS011;14766;51.380;13.762;2022-12-07T10:01:30;13.30;;;7.07;;
27265;SDS011;14766;51.380;13.762;2022-12-07T10:04:01;12.73;;;7.18;;
27265;SDS011;14766;51.380;13.762;2022-12-07T10:06:40;12.75;;;7.28;;
27265;SDS011;14766;51.380;13.762;2022-12-07T10:09:11;17.05;;;9.43;;
27265;SDS011;14766;51.380;13.762;2022-12-07T10:12:14;13.95;;;8.77;;
27265;SDS011;14766;51.380;13.762;2022-12-07T10:14:37;14.38;;;8.32;;
27265;SDS011;14766;51.380;13.762;2022-12-07T10:17:37;11.02;;;6.82;;
27265;SDS011;14766;51.380;13.762;2022-12-07T10:22:56;14.57;;;7.60;;
27265;SDS011;14766;51.380;13.762;2022-12-07T10:25:28;11.55;;;6.97;;
27265;SDS011;14766;51.380;13.762;2022-12-07T10:28:00;11.60;;;6.82;;
27265;SDS011;14766;51.380;13.762;2022-12-07T10:30:27;9.90;;;6.30;;
27265;SDS011;14766;51.380;13.762;2022-12-07T10:32:56;10.23;;;6.28;;
27265;SDS011;14766;51.380;13.762;2022-12-07T10:35:28;10.30;;;6.68;;
27265;SDS011;14766;51.380;13.762;2022-12-07T10:37:57;8.65;;;6.38;;
27265;SDS011;14766;51.380;13.762;2022-12-07T10:48:47;12.02;;;7.00;;
27265;SDS011;14766;51.380;13.762;2022-12-07T10:57:00;10.82;;;6.78;;
27265;SDS011;14766;51.380;13.762;2022-12-07T11:02:40;13.05;;;6.78;;
27265;SDS011;14766;51.380;13.762;2022-12-07T11:13:48;4.28;;;3.40;;
27265;SDS011;14766;51.380;13.762;2022-12-07T11:19:06;3.70;;;2.25;;
27265;SDS011;14766;51.380;13.762;2022-12-07T11:21:57;6.00;;;2.17;;
27265;SDS011;14766;51.380;13.762;2022-12-07T11:27:20;2.55;;;1.55;;
27265;SDS011;14766;51.380;13.762;2022-12-07T11:32:47;3.00;;;2.15;;
27265;SDS011;14766;51.380;13.762;2022-12-07T11:38:21;3.53;;;2.35;;
27265;SDS011;14766;51.380;13.762;2022-12-07T11:41:09;4.15;;;3.15;;
27265;SDS011;14766;51.380;13.762;2022-12-07T11:43:50;4.22;;;3.00;;
27265;SDS011;14766;51.380;13.762;2022-12-07T11:46:35;4.20;;;2.28;;
27265;SDS011;14766;51.380;13.762;2022-12-07T11:52:01;3.55;;;1.90;;
27265;SDS011;14766;51.380;13.762;2022-12-07T11:54:32;2.60;;;1.20;;
27265;SDS011;14766;51.380;13.762;2022-12-07T11:57:09;1.85;;;1.40;;
27265;SDS011;14766;51.380;13.762;2022-12-07T11:59:47;3.45;;;1.35;;
27265;SDS011;14766;51.380;13.762;2022-12-07T12:02:20;3.22;;;1.50;;
27265;SDS011;14766;51.380;13.762;2022-12-07T12:07:32;2.65;;;1.20;;
27265;SDS011;14766;51.380;13.762;2022-12-07T12:10:35;2.00;;;1.40;;
27265;SDS011;14766;51.380;13.762;2022-12-07T12:13:47;2.17;;;1.33;;
27265;SDS011;14766;51.380;13.762;2022-12-07T12:19:57;3.05;;;1.33;;
27265;SDS011;14766;51.380;13.762;2022-12-07T12:22:39;1.65;;;1.00;;
27265;SDS011;14766;51.380;13.762;2022-12-07T12:25:58;2.05;;;1.23;;
27265;SDS011;14766;51.380;13.762;2022-12-07T12:34:01;2.88;;;1.10;;
27265;SDS011;14766;51.380;13.762;2022-12-07T12:46:47;1.48;;;0.90;;
27265;SDS011;14766;51.380;13.762;2022-12-07T12:51:57;1.33;;;1.05;;
27265;SDS011;14766;51.380;13.762;2022-12-07T12:54:28;1.98;;;1.52;;
27265;SDS011;14766;51.380;13.762;2022-12-07T13:01:56;2.58;;;1.50;;
27265;SDS011;14766;51.380;13.762;2022-12-07T13:08:01;1.83;;;1.58;;
27265;SDS011;14766;51.380;13.762;2022-12-07T13:15:35;3.28;;;2.25;;
27265;SDS011;14766;51.380;13.762;2022-12-07T13:28:49;4.72;;;3.47;;
27265;SDS011;14766;51.380;13.762;2022-12-07T13:31:29;3.47;;;3.00;;
27265;SDS011;14766;51.380;13.762;2022-12-07T13:34:04;6.63;;;3.92;;
27265;SDS011;14766;51.380;13.762;2022-12-07T13:36:51;6.90;;;3.80;;
27265;SDS011;14766;51.380;13.762;2022-12-07T13:39:19;5.22;;;3.60;;
27265;SDS011;14766;51.380;13.762;2022-12-07T13:41:50;6.28;;;4.05;;
27265;SDS011;14766;51.380;13.762;2022-12-07T13:44:19;5.80;;;4.32;;
27265;SDS011;14766;51.380;13.762;2022-12-07T13:47:05;7.28;;;4.80;;
27265;SDS011;14766;51.380;13.762;2022-12-07T13:49:56;5.50;;;4.53;;
27265;SDS011;14766;51.380;13.762;2022-12-07T13:52:25;6.38;;;4.90;;
27265;SDS011;14766;51.380;13.762;2022-12-07T13:57:32;7.22;;;4.78;;
27265;SDS011;14766;51.380;13.762;2022-12-07T14:00:05;6.57;;;4.95;;
27265;SDS011;14766;51.380;13.762;2022-12-07T14:03:25;5.45;;;3.95;;
27265;SDS011;14766;51.380;13.762;2022-12-07T14:05:39;7.30;;;4.53;;
27265;SDS011;14766;51.380;13.762;2022-12-07T14:15:57;8.40;;;4.93;;
27265;SDS011;14766;51.380;13.762;2022-12-07T14:18:29;8.32;;;5.15;;
27265;SDS011;14766;51.380;13.762;2022-12-07T14:21:38;8.70;;;5.80;;
27265;SDS011;14766;51.380;13.762;2022-12-07T14:24:07;8.13;;;5.45;;
27265;SDS011;14766;51.380;13.762;2022-12-07T14:26:37;9.30;;;5.60;;
27265;SDS011;14766;51.380;13.762;2022-12-07T14:32:20;11.68;;;6.63;;
27265;SDS011;14766;51.380;13.762;2022-12-07T14:37:37;38.38;;;19.42;;
27265;SDS011;14766;51.380;13.762;2022-12-07T14:40:05;14.68;;;8.60;;
27265;SDS011;14766;51.380;13.762;2022-12-07T14:42:33;8.85;;;5.10;;
27265;SDS011;14766;51.380;13.762;2022-12-07T14:45:01;6.97;;;4.95;;
27265;SDS011;14766;51.380;13.762;2022-12-07T14:47:29;12.00;;;7.15;;
27265;SDS011;14766;51.380;13.762;2022-12-07T14:50:17;10.60;;;6.07;;
27265;SDS011;14766;51.380;13.762;2022-12-07T14:52:48;6.95;;;4.97;;
27265;SDS011;14766;51.380;13.762;2022-12-07T14:55:49;5.00;;;3.50;;
27265;SDS011;14766;51.380;13.762;2022-12-07T14:58:17;4.75;;;3.33;;
27265;SDS011;14766;51.380;13.762;2022-12-07T15:00:44;8.07;;;6.07;;
27265;SDS011;14766;51.380;13.762;2022-12-07T15:03:11;5.68;;;4.10;;
27265;SDS011;14766;51.380;13.762;2022-12-07T15:05:40;4.25;;;2.97;;
27265;SDS011;14766;51.380;13.762;2022-12-07T15:08:11;3.88;;;3.35;;
27265;SDS011;14766;51.380;13.762;2022-12-07T15:10:40;7.22;;;3.47;;
27265;SDS011;14766;51.380;13.762;2022-12-07T15:13:07;6.93;;;3.25;;
27265;SDS011;14766;51.380;13.762;2022-12-07T15:15:54;6.18;;;4.13;;
27265;SDS011;14766;51.380;13.762;2022-12-07T15:18:22;7.25;;;5.00;;
27265;SDS011;14766;51.380;13.762;2022-12-07T15:20:50;7.80;;;4.15;;
27265;SDS011;14766;51.380;13.762;2022-12-07T15:23:18;6.20;;;4.03;;
27265;SDS011;14766;51.380;13.762;2022-12-07T15:25:45;7.90;;;4.82;;
27265;SDS011;14766;51.380;13.762;2022-12-07T15:28:14;6.63;;;4.38;;
27265;SDS011;14766;51.380;13.762;2022-12-07T15:30:42;6.40;;;4.28;;
27265;SDS011;14766;51.380;13.762;2022-12-07T15:33:10;5.57;;;4.43;;
27265;SDS011;14766;51.380;13.762;2022-12-07T15:35:43;6.45;;;4.20;;
27265;SDS011;14766;51.380;13.762;2022-12-07T15:38:11;6.40;;;4.45;;
27265;SDS011;14766;51.380;13.762;2022-12-07T15:40:40;8.10;;;5.43;;
27265;SDS011;14766;51.380;13.762;2022-12-07T15:43:10;9.73;;;6.60;;
27265;SDS011;14766;51.380;13.762;2022-12-07T15:45:58;9.57;;;4.68;;
27265;SDS011;14766;51.380;13.762;2022-12-07T15:48:25;6.43;;;4.38;;
27265;SDS011;14766;51.380;13.762;2022-12-07T15:51:01;6.05;;;4.15;;
27265;SDS011;14766;51.380;13.762;2022-12-07T15:53:32;5.97;;;4.50;;
27265;SDS011;14766;51.380;13.762;2022-12-07T15:56:00;6.00;;;4.13;;
27265;SDS011;14766;51.380;13.762;2022-12-07T15:58:27;6.03;;;4.53;;
27265;SDS011;14766;51.380;13.762;2022-12-07T16:00:54;6.50;;;4.68;;
27265;SDS011;14766;51.380;13.762;2022-12-07T16:03:21;6.10;;;4.20;;
27265;SDS011;14766;51.380;13.762;2022-12-07T16:05:49;5.25;;;4.30;;
27265;SDS011;14766;51.380;13.762;2022-12-07T16:08:16;7.85;;;5.20;;
27265;SDS011;14766;51.380;13.762;2022-12-07T16:10:44;8.15;;;4.90;;
27265;SDS011;14766;51.380;13.762;2022-12-07T16:13:12;6.43;;;3.33;;
27265;SDS011;14766;51.380;13.762;2022-12-07T16:15:43;3.97;;;2.97;;
27265;SDS011;14766;51.380;13.762;2022-12-07T16:18:10;3.85;;;3.05;;
27265;SDS011;14766;51.380;13.762;2022-12-07T16:20:38;5.30;;;3.15;;
27265;SDS011;14766;51.380;13.762;2022-12-07T16:23:05;4.78;;;3.22;;
27265;SDS011;14766;51.380;13.762;2022-12-07T16:25:33;10.27;;;8.73;;
27265;SDS011;14766;51.380;13.762;2022-12-07T16:28:01;5.22;;;4.72;;
27265;SDS011;14766;51.380;13.762;2022-12-07T16:30:29;6.30;;;4.10;;
27265;SDS011;14766;51.380;13.762;2022-12-07T16:32:56;5.45;;;3.53;;
27265;SDS011;14766;51.380;13.762;2022-12-07T16:35:28;4.72;;;3.70;;
27265;SDS011;14766;51.380;13.762;2022-12-07T16:37:55;4.93;;;3.15;;
27265;SDS011;14766;51.380;13.762;2022-12-07T16:40:23;3.65;;;2.75;;
27265;SDS011;14766;51.380;13.762;2022-12-07T16:42:50;3.35;;;2.33;;
27265;SDS011;14766;51.380;13.762;2022-12-07T16:45:17;3.53;;;2.42;;
27265;SDS011;14766;51.380;13.762;2022-12-07T16:47:46;4.30;;;2.20;;
27265;SDS011;14766;51.380;13.762;2022-12-07T16:50:13;4.97;;;2.65;;
27265;SDS011;14766;51.380;13.762;2022-12-07T16:52:40;3.67;;;2.55;;
27265;SDS011;14766;51.380;13.762;2022-12-07T16:55:07;4.55;;;2.10;;
27265;SDS011;14766;51.380;13.762;2022-12-07T16:57:35;2.45;;;1.80;;
27265;SDS011;14766;51.380;13.762;2022-12-07T17:00:02;2.97;;;1.70;;
27265;SDS011;14766;51.380;13.762;2022-12-07T17:02:30;5.40;;;2.47;;
27265;SDS011;14766;51.380;13.762;2022-12-07T17:04:59;2.78;;;1.88;;
27265;SDS011;14766;51.380;13.762;2022-12-07T17:07:27;4.47;;;3.15;;
27265;SDS011;14766;51.380;13.762;2022-12-07T17:09:54;12.15;;;7.25;;
27265;SDS011;14766;51.380;13.762;2022-12-07T17:12:21;9.00;;;5.88;;
27265;SDS011;14766;51.380;13.762;2022-12-07T17:14:48;5.22;;;3.30;;
27265;SDS011;14766;51.380;13.762;2022-12-07T17:17:34;6.17;;;3.40;;
27265;SDS011;14766;51.380;13.762;2022-12-07T17:20:01;4.30;;;2.30;;